createdAt,value
2022-08-01T00:04:11.787Z,15.82
2022-08-01T00:09:23.647Z,15.92
2022-08-01T00:14:32.108Z,15.81
2022-08-01T00:19:35.758Z,15.80
2022-08-01T00:24:40.444Z,15.73
2022-08-01T00:30:09.801Z,15.71
2022-08-01T00:35:07.638Z,15.82
2022-08-01T00:40:12.294Z,15.82
2022-08-01T00:45:15.291Z,15.72
2022-08-01T00:50:18.352Z,15.75
2022-08-01T00:55:23.771Z,15.73
2022-08-01T01:00:27.497Z,15.68
2022-08-01T01:05:37.732Z,15.63
2022-08-01T01:10:48.039Z,15.75
2022-08-01T01:15:56.800Z,15.67
2022-08-01T01:21:07.374Z,15.65
2022-08-01T01:26:24.671Z,15.63
2022-08-01T01:31:32.393Z,15.54
2022-08-01T01:36:36.988Z,15.59
2022-08-01T01:41:41.544Z,15.45
2022-08-01T01:46:47.483Z,15.58
2022-08-01T01:52:02.800Z,15.52
2022-08-01T01:57:08.284Z,15.51
2022-08-01T02:02:14.279Z,15.52
2022-08-01T02:07:23.973Z,15.45
2022-08-01T02:12:27.720Z,15.43
2022-08-01T02:17:32.930Z,15.45
2022-08-01T02:22:39.125Z,15.43
2022-08-01T02:27:53.403Z,15.39
2022-08-01T02:33:03.553Z,15.43
2022-08-01T02:38:10.353Z,15.44
2022-08-01T02:43:17.282Z,15.42
2022-08-01T02:48:24.172Z,15.38
2022-08-01T02:53:44.460Z,15.31
2022-08-01T02:58:50.057Z,15.23
2022-08-01T03:03:55.004Z,15.24
2022-08-01T03:09:00.129Z,15.14
2022-08-01T03:14:06.305Z,15.12
2022-08-01T03:19:13.478Z,15.10
2022-08-01T03:24:17.833Z,15.28
2022-08-01T03:29:26.248Z,15.25
2022-08-01T03:34:31.190Z,15.17
2022-08-01T03:39:42.516Z,15.25
2022-08-01T03:44:52.863Z,15.24
2022-08-01T03:49:59.209Z,15.27
2022-08-01T03:55:08.365Z,15.23
2022-08-01T04:00:12.187Z,15.31
2022-08-01T04:05:17.508Z,15.46
2022-08-01T04:10:20.749Z,15.36
2022-08-01T04:15:25.147Z,15.39
2022-08-01T04:20:29.855Z,15.31
2022-08-01T04:25:36.442Z,15.36
2022-08-01T04:30:41.040Z,15.37
2022-08-01T04:36:03.212Z,15.39
2022-08-01T04:41:09.880Z,15.30
2022-08-01T04:46:14.516Z,15.26
2022-08-01T04:51:23.150Z,15.26
2022-08-01T04:56:26.197Z,15.39
2022-08-01T05:01:29.315Z,15.44
2022-08-01T05:06:33.700Z,15.36
2022-08-01T05:11:37.098Z,15.60
2022-08-01T05:16:40.408Z,15.58
2022-08-01T05:21:44.983Z,15.73
2022-08-01T05:26:48.070Z,15.74
2022-08-01T05:31:51.325Z,15.89
2022-08-01T05:36:58.003Z,16.24
2022-08-01T05:42:01.409Z,16.10
2022-08-01T05:47:04.698Z,15.99
2022-08-01T05:52:09.438Z,16.00
2022-08-01T05:57:13.088Z,15.91
2022-08-01T06:02:18.474Z,15.89
2022-08-01T06:07:23.183Z,16.04
2022-08-01T06:12:26.614Z,16.69
2022-08-01T06:17:29.519Z,17.17
2022-08-01T06:22:35.129Z,17.41
2022-08-01T06:27:38.716Z,17.53
2022-08-01T06:32:42.148Z,17.55
2022-08-01T06:37:47.918Z,18.00
2022-08-01T06:42:51.564Z,18.29
2022-08-01T06:47:54.544Z,18.51
2022-08-01T06:52:59.116Z,18.57
2022-08-01T06:58:02.648Z,18.44
2022-08-01T07:03:06.109Z,18.91
2022-08-01T07:08:10.793Z,18.74
2022-08-01T07:13:13.767Z,19.14
2022-08-01T07:18:16.972Z,19.07
2022-08-01T07:23:22.573Z,19.30
2022-08-01T07:28:25.955Z,19.48
2022-08-01T07:33:28.938Z,19.48
2022-08-01T07:38:53.358Z,19.79
2022-08-01T07:43:58.809Z,19.60
2022-08-01T07:49:04.661Z,19.94
2022-08-01T07:54:09.437Z,20.10
2022-08-01T07:59:12.441Z,20.24
2022-08-01T08:04:26.338Z,20.06
2022-08-01T08:09:30.963Z,20.10
2022-08-01T08:14:40.770Z,20.33
2022-08-01T08:19:44.012Z,20.50
2022-08-01T08:24:48.513Z,20.37
2022-08-01T08:29:51.555Z,20.72
2022-08-01T08:34:54.588Z,21.11
2022-08-01T08:39:59.256Z,21.14
2022-08-01T08:45:02.938Z,21.02
2022-08-01T08:50:07.653Z,21.03
2022-08-01T08:55:15.852Z,21.22
2022-08-01T09:00:18.950Z,21.30
2022-08-01T09:05:38.620Z,21.16
2022-08-01T09:10:44.276Z,21.53
2022-08-01T09:15:49.571Z,21.33
2022-08-01T09:20:52.651Z,21.19
2022-08-01T09:25:59.355Z,21.84
2022-08-01T09:31:08.712Z,22.02
2022-08-01T09:36:13.272Z,22.35
2022-08-01T09:41:37.987Z,22.08
2022-08-01T09:46:51.775Z,22.32
2022-08-01T09:51:59.202Z,22.19
2022-08-01T09:57:18.975Z,21.96
2022-08-01T10:02:30.873Z,22.41
2022-08-01T10:07:43.175Z,22.27
2022-08-01T10:12:49.774Z,22.38
2022-08-01T10:17:57.419Z,22.47
2022-08-01T10:23:02.914Z,22.52
2022-08-01T10:28:18.000Z,22.58
2022-08-01T10:33:51.143Z,22.26
2022-08-01T10:38:48.767Z,22.53
2022-08-01T10:43:53.563Z,22.70
2022-08-01T10:49:02.837Z,22.82
2022-08-01T10:54:07.601Z,23.00
2022-08-01T10:59:29.254Z,22.54
2022-08-01T11:04:55.377Z,22.94
2022-08-01T11:10:05.522Z,22.78
2022-08-01T11:15:29.096Z,22.90
2022-08-01T11:20:39.569Z,23.06
2022-08-01T11:26:10.470Z,22.72
2022-08-01T11:31:37.824Z,23.32
2022-08-01T11:36:58.026Z,23.47
2022-08-01T11:42:20.809Z,23.06
2022-08-01T11:47:57.221Z,23.45
2022-08-01T11:53:02.078Z,23.41
2022-08-01T11:58:21.994Z,23.29
2022-08-01T12:03:33.115Z,23.47
2022-08-01T12:08:37.892Z,23.84
2022-08-01T12:13:43.032Z,23.47
2022-08-01T12:18:48.140Z,23.77
2022-08-01T12:24:02.082Z,23.59
2022-08-01T12:29:05.456Z,23.70
2022-08-01T12:34:31.721Z,23.98
2022-08-01T12:39:35.379Z,24.34
2022-08-01T12:44:39.391Z,24.04
2022-08-01T12:49:45.664Z,23.68
2022-08-01T12:55:12.396Z,23.47
2022-08-01T13:00:19.063Z,23.45
2022-08-01T13:05:26.327Z,23.68
2022-08-01T13:10:31.371Z,23.88
2022-08-01T13:15:41.701Z,24.11
2022-08-01T13:20:50.546Z,24.26
2022-08-01T13:25:57.326Z,24.38
2022-08-01T13:31:01.694Z,24.32
2022-08-01T13:36:07.800Z,24.29
2022-08-01T13:41:10.910Z,24.09
2022-08-01T13:46:14.162Z,24.23
2022-08-01T13:51:23.515Z,24.38
2022-08-01T13:56:28.741Z,24.50
2022-08-01T14:01:34.444Z,24.33
2022-08-01T14:06:39.260Z,24.24
2022-08-01T14:11:45.985Z,24.11
2022-08-01T14:16:49.174Z,24.41
2022-08-01T14:21:53.913Z,24.72
2022-08-01T14:26:56.837Z,24.90
2022-08-01T14:31:59.958Z,24.86
2022-08-01T14:37:04.660Z,24.64
2022-08-01T14:42:08.273Z,24.75
2022-08-01T14:47:16.201Z,24.77
2022-08-01T14:52:27.127Z,24.58
2022-08-01T14:57:30.459Z,24.53
2022-08-01T15:02:33.581Z,24.75
2022-08-01T15:07:52.307Z,25.12
2022-08-01T15:12:57.010Z,25.24
2022-08-01T15:18:00.243Z,25.29
2022-08-01T15:23:05.322Z,24.92
2022-08-01T15:28:09.702Z,24.89
2022-08-01T15:33:13.046Z,24.88
2022-08-01T15:38:18.457Z,24.84
2022-08-01T15:43:21.989Z,24.73
2022-08-01T15:48:25.438Z,24.82
2022-08-01T15:53:29.867Z,25.17
2022-08-01T15:58:34.616Z,25.22
2022-08-01T16:03:37.505Z,25.30
2022-08-01T16:08:42.187Z,25.15
2022-08-01T16:13:45.485Z,25.18
2022-08-01T16:18:53.753Z,25.05
2022-08-01T16:23:59.355Z,24.78
2022-08-01T16:29:02.391Z,24.58
2022-08-01T16:34:05.323Z,24.48
2022-08-01T16:39:10.596Z,24.40
2022-08-01T16:44:14.060Z,24.30
2022-08-01T16:49:17.594Z,24.06
2022-08-01T16:54:25.559Z,23.95
2022-08-01T16:59:29.229Z,23.75
2022-08-01T17:04:32.746Z,23.61
2022-08-01T17:09:42.953Z,23.55
2022-08-01T17:14:46.583Z,23.36
2022-08-01T17:19:50.115Z,23.40
2022-08-01T17:24:54.676Z,23.35
2022-08-01T17:29:57.774Z,23.14
2022-08-01T17:35:00.624Z,23.13
2022-08-01T17:40:37.615Z,23.01
2022-08-01T17:45:29.949Z,22.90
2022-08-01T17:50:41.593Z,22.87
2022-08-01T17:55:55.698Z,22.72
2022-08-01T18:01:01.258Z,22.63
2022-08-01T18:06:04.596Z,22.40
2022-08-01T18:11:09.733Z,22.40
2022-08-01T18:16:13.553Z,22.33
2022-08-01T18:21:16.898Z,22.28
2022-08-01T18:26:22.038Z,22.22
2022-08-01T18:31:25.473Z,22.16
2022-08-01T18:36:32.746Z,22.11
2022-08-01T18:41:39.456Z,22.09
2022-08-01T18:46:42.511Z,22.06
2022-08-01T18:51:47.305Z,21.98
2022-08-01T18:56:52.385Z,21.98
2022-08-01T19:01:55.494Z,21.92
2022-08-01T19:06:59.014Z,21.81
2022-08-01T19:12:04.816Z,21.76
2022-08-01T19:17:07.981Z,21.68
2022-08-01T19:22:12.121Z,21.64
2022-08-01T19:27:20.338Z,21.60
2022-08-01T19:32:25.259Z,21.57
2022-08-01T19:37:30.049Z,21.52
2022-08-01T19:42:34.943Z,21.47
2022-08-01T19:47:51.638Z,21.31
2022-08-01T19:53:04.000Z,21.30
2022-08-01T20:03:34.840Z,21.31
2022-08-01T20:08:38.379Z,21.23
2022-08-01T20:13:43.967Z,21.17
2022-08-01T20:18:47.408Z,21.11
2022-08-01T20:23:51.752Z,21.07
2022-08-01T20:28:57.689Z,21.10
2022-08-01T20:34:01.581Z,21.13
2022-08-01T20:39:05.270Z,21.08
2022-08-01T20:44:13.922Z,20.98
2022-08-01T20:49:17.941Z,20.90
2022-08-01T20:54:21.129Z,20.78
2022-08-01T20:59:54.745Z,20.76
2022-08-01T21:04:58.480Z,20.71
2022-08-01T21:10:07.332Z,20.71
2022-08-01T21:15:16.069Z,20.74
2022-08-01T21:20:20.224Z,20.73
2022-08-01T21:25:30.859Z,20.72
2022-08-01T21:30:36.484Z,20.66
2022-08-01T21:35:41.311Z,20.60
2022-08-01T21:40:45.694Z,20.49
2022-08-01T21:45:57.886Z,20.47
2022-08-01T21:51:06.363Z,20.47
2022-08-01T21:56:24.480Z,20.41
2022-08-01T22:01:52.449Z,20.39
2022-08-01T22:06:56.976Z,20.35
2022-08-01T22:12:06.285Z,20.30
2022-08-01T22:17:14.138Z,20.16
2022-08-01T22:22:45.323Z,20.18
2022-08-01T22:28:05.618Z,20.18
2022-08-01T22:33:16.940Z,20.16
2022-08-01T22:38:23.353Z,20.15
2022-08-01T22:43:30.990Z,20.12
2022-08-01T22:48:41.872Z,20.14
2022-08-01T22:53:55.261Z,20.14
2022-08-01T22:59:01.941Z,20.13
2022-08-01T23:04:09.509Z,20.15
2022-08-01T23:09:13.438Z,20.15
2022-08-01T23:14:17.610Z,20.13
2022-08-01T23:19:24.978Z,20.13
2022-08-01T23:24:29.176Z,20.18
2022-08-01T23:29:32.464Z,20.18
2022-08-01T23:34:37.016Z,20.17
2022-08-01T23:39:40.170Z,20.15
2022-08-01T23:44:43.669Z,20.12
2022-08-01T23:49:53.164Z,20.06
2022-08-01T23:54:57.323Z,20.12
